createdAt,value
2019-04-12T00:00:46.521Z,74.11
2019-04-12T00:01:46.528Z,74.2
2019-04-12T00:02:46.503Z,74.3
2019-04-12T00:03:46.496Z,74.39
2019-04-12T00:04:46.485Z,74.11
2019-04-12T00:05:46.485Z,74.01
2019-04-12T00:06:46.467Z,73.82
2019-04-12T00:07:46.458Z,73.72
2019-04-12T00:08:46.196Z,73.63
2019-04-12T00:09:46.441Z,73.44
2019-04-12T00:10:46.435Z,73.25
2019-04-12T00:11:46.426Z,72.88
2019-04-12T00:12:46.412Z,72.59
2019-04-12T00:13:46.403Z,72.49
2019-04-12T00:14:46.395Z,72.3
2019-04-12T00:15:46.730Z,72.3
2019-04-12T00:16:47.067Z,72.49
2019-04-12T00:17:47.232Z,72.59
2019-04-12T00:18:47.632Z,72.59
2019-04-12T00:19:46.542Z,72.59
2019-04-12T00:20:47.634Z,0
2019-04-12T00:21:48.137Z,72.49
2019-04-12T00:22:48.344Z,72.49
2019-04-12T00:23:48.836Z,72.4
2019-04-12T00:24:49.380Z,72.4
2019-04-12T00:25:50.397Z,72.4
2019-04-12T00:26:48.603Z,72.4
2019-04-12T00:27:48.662Z,72.4
2019-04-12T00:28:49.864Z,72.4
2019-04-12T00:29:46.260Z,72.4
2019-04-12T00:30:46.255Z,72.27
2019-04-12T00:31:46.254Z,0
2019-04-12T00:32:45.985Z,72.21
2019-04-12T00:33:46.230Z,71.98
2019-04-12T00:34:46.230Z,71.73
2019-04-12T00:35:46.216Z,71.26
2019-04-12T00:36:46.200Z,71.07
2019-04-12T00:37:46.192Z,70.69
2019-04-12T00:38:46.183Z,70.4
2019-04-12T00:39:46.177Z,70.12
2019-04-12T00:40:46.165Z,69.74
2019-04-12T00:41:46.155Z,69.65
2019-04-12T00:42:46.152Z,69.65
2019-04-12T00:43:46.143Z,69.65
2019-04-12T00:44:46.129Z,69.65
2019-04-12T00:45:46.122Z,69.27
2019-04-12T00:46:46.112Z,68.98
2019-04-12T00:47:46.111Z,68.89
2019-04-12T00:48:46.094Z,68.89
2019-04-12T00:49:46.084Z,68.89
2019-04-12T00:50:46.075Z,68.89
2019-04-12T00:51:46.067Z,68.98
2019-04-12T00:52:46.222Z,69.17
2019-04-12T00:53:47.886Z,69.55
2019-04-12T00:54:50.160Z,69.74
2019-04-12T00:55:48.338Z,69.84
2019-04-12T00:56:48.890Z,69.9
2019-04-12T00:57:48.589Z,69.9
2019-04-12T00:58:48.748Z,69.9
2019-04-12T00:59:49.407Z,69.9
2019-04-12T01:00:50.543Z,70.09
2019-04-12T01:01:47.241Z,70.18
2019-04-12T01:02:48.568Z,70.28
2019-04-12T01:03:48.565Z,70.28
2019-04-12T01:04:48.715Z,70.18
2019-04-12T01:05:47.958Z,70.09
2019-04-12T01:06:48.218Z,69.9
2019-04-12T01:07:47.984Z,69.8
2019-04-12T01:08:45.919Z,69.61
2019-04-12T01:09:45.909Z,69.71
2019-04-12T01:10:45.900Z,69.9
2019-04-12T01:11:45.889Z,69.99
2019-04-12T01:12:45.883Z,69.9
2019-04-12T01:13:45.877Z,69.8
2019-04-12T01:14:45.861Z,69.8
2019-04-12T01:15:45.601Z,70.09
2019-04-12T01:16:45.854Z,70.37
2019-04-12T01:17:45.835Z,70.47
2019-04-12T01:18:45.826Z,70.37
2019-04-12T01:19:45.839Z,70.18
2019-04-12T01:20:45.809Z,70.18
2019-04-12T01:21:45.799Z,69.8
2019-04-12T01:22:45.790Z,69.61
2019-04-12T01:23:45.781Z,69.61
2019-04-12T01:24:56.856Z,69.61
2019-04-12T01:25:47.592Z,69.61
2019-04-12T01:26:48.561Z,69.71
2019-04-12T01:27:49.469Z,69.9
2019-04-12T01:28:45.859Z,69.9
2019-04-12T01:29:47.837Z,69.9
2019-04-12T01:30:45.717Z,69.9
2019-04-12T01:31:45.714Z,69.71
2019-04-12T01:32:45.699Z,69.42
2019-04-12T01:33:45.691Z,69.23
2019-04-12T01:34:45.681Z,69.04
2019-04-12T01:35:45.677Z,68.66
2019-04-12T01:36:45.663Z,68.48
2019-04-12T01:37:45.655Z,68.29
2019-04-12T01:38:45.649Z,68.19
2019-04-12T01:39:45.788Z,68.19
2019-04-12T01:40:45.631Z,68.19
2019-04-12T01:41:45.618Z,68
2019-04-12T01:42:45.609Z,68.1
2019-04-12T01:43:45.603Z,68.19
2019-04-12T01:44:45.599Z,68.38
2019-04-12T01:45:45.581Z,68.66
2019-04-12T01:46:45.577Z,69.04
2019-04-12T01:47:45.565Z,69.04
2019-04-12T01:48:45.554Z,69.04
2019-04-12T01:49:45.544Z,69.04
2019-04-12T01:50:45.539Z,69.23
2019-04-12T01:51:45.531Z,69.33
2019-04-12T01:52:45.521Z,69.33
2019-04-12T01:53:45.510Z,69.33
2019-04-12T01:54:45.505Z,69.23
2019-04-12T01:55:45.493Z,69.01
2019-04-12T01:56:45.482Z,69.1
2019-04-12T01:57:45.477Z,69.29
2019-04-12T01:58:45.466Z,69.2
2019-04-12T01:59:45.458Z,69.29
2019-04-12T02:00:45.447Z,69.29
2019-04-12T02:01:45.435Z,69.2
2019-04-12T02:02:45.427Z,69.1
2019-04-12T02:03:45.423Z,68.66
2019-04-12T02:04:45.409Z,68.48
2019-04-12T02:05:45.406Z,68.29
2019-04-12T02:06:45.397Z,68.29
2019-04-12T02:07:45.382Z,68.57
2019-04-12T02:08:45.371Z,69.1
2019-04-12T02:09:45.363Z,68.95
2019-04-12T02:10:45.370Z,68.66
2019-04-12T02:11:45.345Z,68.66
2019-04-12T02:12:45.340Z,68.48
2019-04-12T02:13:45.343Z,68.57
2019-04-12T02:14:45.315Z,68.95
2019-04-12T02:15:45.309Z,69.13
2019-04-12T02:16:45.299Z,69.1
2019-04-12T02:17:45.299Z,69.29
2019-04-12T02:18:45.279Z,69.48
2019-04-12T02:19:45.282Z,69.77
2019-04-12T02:20:45.264Z,70.05
2019-04-12T02:21:45.254Z,70.62
2019-04-12T02:22:45.244Z,70.53
2019-04-12T02:23:45.235Z,70.34
2019-04-12T02:24:45.234Z,70.34
2019-04-12T02:25:45.221Z,70.43
2019-04-12T02:26:46.111Z,70.43
2019-04-12T02:27:45.197Z,70.43
2019-04-12T02:28:45.189Z,70.53
2019-04-12T02:29:45.178Z,70.62
2019-04-12T02:30:45.175Z,70.81
2019-04-12T02:31:45.173Z,71
2019-04-12T02:32:45.173Z,71
2019-04-12T02:33:45.149Z,71.09
2019-04-12T02:34:45.147Z,71.28
2019-04-12T02:35:45.134Z,71.47
2019-04-12T02:36:45.120Z,71.38
2019-04-12T02:37:45.130Z,71.38
2019-04-12T02:38:45.110Z,71.38
2019-04-12T02:39:45.104Z,71.28
2019-04-12T02:40:45.209Z,71.38
2019-04-12T02:41:45.088Z,71.47
2019-04-12T02:42:45.067Z,71.47
2019-04-12T02:43:45.067Z,71.57
2019-04-12T02:44:45.053Z,71.76
2019-04-12T02:45:45.107Z,71.76
2019-04-12T02:46:45.030Z,71.76
2019-04-12T02:47:44.824Z,71.76
2019-04-12T02:48:45.034Z,71.76
2019-04-12T02:49:45.010Z,71.85
2019-04-12T02:50:44.999Z,72.04
2019-04-12T02:51:44.993Z,72.04
2019-04-12T02:52:44.989Z,72.04
2019-04-12T02:53:44.966Z,71.95
2019-04-12T02:54:44.973Z,71.85
2019-04-12T02:55:44.952Z,71.76
2019-04-12T02:56:44.944Z,71.57
2019-04-12T02:57:44.958Z,71.38
2019-04-12T02:58:44.925Z,71.38
2019-04-12T02:59:44.925Z,71.28
2019-04-12T03:00:44.905Z,71.28
2019-04-12T03:01:44.896Z,71.28
2019-04-12T03:02:44.885Z,71.38
2019-04-12T03:03:44.875Z,71.38
2019-04-12T03:04:44.880Z,71.38
2019-04-12T03:05:44.857Z,71.38
2019-04-12T03:06:44.867Z,71.38
2019-04-12T03:07:44.846Z,71.38
2019-04-12T03:08:44.851Z,71.38
2019-04-12T03:09:44.822Z,71.47
2019-04-12T03:10:44.816Z,71.66
2019-04-12T03:11:44.800Z,71.76
2019-04-12T03:12:44.807Z,71.72
2019-04-12T03:13:44.790Z,72
2019-04-12T03:14:44.771Z,72.23
2019-04-12T03:15:44.767Z,72.23
2019-04-12T03:16:44.759Z,72.14
2019-04-12T03:17:44.747Z,72.33
2019-04-12T03:18:44.734Z,72.23
2019-04-12T03:19:44.731Z,72.23
2019-04-12T03:20:44.479Z,72.23
2019-04-12T03:21:44.713Z,72.23
2019-04-12T03:22:44.694Z,72.23
2019-04-12T03:23:44.686Z,72.23
2019-04-12T03:24:44.704Z,72.04
2019-04-12T03:25:58.204Z,71.76
2019-04-12T03:26:44.657Z,71.66
2019-04-12T03:27:44.654Z,71.57
2019-04-12T03:28:44.639Z,71.47
2019-04-12T03:29:44.631Z,71.38
2019-04-12T03:30:44.703Z,71.38
2019-04-12T03:31:44.663Z,71.47
2019-04-12T03:32:44.789Z,71.57
2019-04-12T03:33:44.594Z,71.57
2019-04-12T03:34:44.589Z,71.66
2019-04-12T03:35:46.500Z,71.76
2019-04-12T03:36:44.566Z,71.85
2019-04-12T03:37:44.566Z,71.85
2019-04-12T03:38:44.549Z,72.04
2019-04-12T03:39:44.552Z,72.04
2019-04-12T03:40:44.536Z,72.04
2019-04-12T03:41:44.544Z,72.1
2019-04-12T03:42:44.508Z,72.1
2019-04-12T03:43:44.501Z,72.19
2019-04-12T03:44:44.492Z,72.29
2019-04-12T03:45:44.485Z,72.38
2019-04-12T03:46:44.502Z,72.57
2019-04-12T03:47:44.465Z,72.67
2019-04-12T03:48:44.499Z,72.77
2019-04-12T03:49:44.455Z,72.86
2019-04-12T03:50:44.441Z,72.86
2019-04-12T03:51:44.427Z,72.77
2019-04-12T03:52:44.415Z,72.77
2019-04-12T03:53:44.409Z,72.67
2019-04-12T03:54:44.398Z,72.77
2019-04-12T03:55:44.403Z,72.86
2019-04-12T03:56:44.387Z,72.86
2019-04-12T03:57:44.378Z,72.86
2019-04-12T03:58:44.400Z,72.86
2019-04-12T03:59:44.352Z,72.86
2019-04-12T04:00:44.342Z,72.86
2019-04-12T04:01:44.406Z,72.96
2019-04-12T04:02:44.322Z,72.96
2019-04-12T04:03:44.318Z,72.96
2019-04-12T04:04:44.308Z,72.96
2019-04-12T04:05:44.314Z,73.05
2019-04-12T04:06:44.286Z,73.24
2019-04-12T04:07:44.277Z,73.33
2019-04-12T04:08:44.271Z,73.24
2019-04-12T04:09:44.262Z,73.24
2019-04-12T04:10:44.016Z,73.14
2019-04-12T04:11:44.255Z,73.24
2019-04-12T04:12:44.229Z,73.24
2019-04-12T04:13:44.218Z,73.24
2019-04-12T04:14:44.210Z,73.33
2019-04-12T04:15:44.301Z,73.43
2019-04-12T04:16:44.208Z,73.43
2019-04-12T04:17:44.250Z,73.52
2019-04-12T04:18:44.180Z,73.52
2019-04-12T04:19:44.168Z,73.61
2019-04-12T04:20:44.173Z,73.61
2019-04-12T04:21:44.149Z,73.61
2019-04-12T04:22:44.138Z,73.8
2019-04-12T04:23:44.127Z,73.9
2019-04-12T04:24:44.120Z,73.99
2019-04-12T04:25:44.116Z,74.18
2019-04-12T04:26:44.229Z,74.28
2019-04-12T04:27:44.105Z,74.28
2019-04-12T04:28:44.085Z,74.37
2019-04-12T04:29:44.068Z,74.37
2019-04-12T04:30:44.058Z,74.47
2019-04-12T04:31:44.056Z,74.47
2019-04-12T04:32:44.045Z,74.56
2019-04-12T04:33:44.030Z,74.71
2019-04-12T04:34:44.026Z,74.9
2019-04-12T04:35:44.051Z,75.09
2019-04-12T04:36:44.007Z,75.09
2019-04-12T04:37:43.994Z,75.09
2019-04-12T04:38:43.983Z,75
2019-04-12T04:39:44.065Z,75
2019-04-12T04:40:43.972Z,75
2019-04-12T04:41:43.961Z,75.09
2019-04-12T04:42:43.953Z,75.19
2019-04-12T04:43:43.709Z,75.09
2019-04-12T04:44:43.934Z,75.09
2019-04-12T04:45:43.926Z,75.19
2019-04-12T04:46:43.917Z,75.28
2019-04-12T04:47:43.911Z,75.57
2019-04-12T04:48:43.903Z,75.57
2019-04-12T04:49:43.886Z,75.38
2019-04-12T04:50:43.881Z,75.19
2019-04-12T04:51:43.870Z,75.09
2019-04-12T04:52:43.860Z,75.19
2019-04-12T04:53:43.596Z,75.19
2019-04-12T04:54:43.842Z,75.28
2019-04-12T04:55:43.832Z,75.38
2019-04-12T04:56:43.823Z,75.38
2019-04-12T04:57:44.379Z,75.57
2019-04-12T04:58:43.799Z,75.66
2019-04-12T04:59:43.791Z,75.85
2019-04-12T05:00:43.779Z,76.04
2019-04-12T05:01:43.780Z,76.14
2019-04-12T05:02:43.767Z,76.14
2019-04-12T05:03:43.754Z,76.14
2019-04-12T05:04:43.750Z,76.04
2019-04-12T05:05:43.733Z,76.04
2019-04-12T05:06:43.727Z,76.04
2019-04-12T05:07:43.717Z,76.04
2019-04-12T05:08:43.706Z,76.14
2019-04-12T05:09:43.698Z,76.14
2019-04-12T05:10:43.687Z,76.04
2019-04-12T05:11:43.678Z,76.04
2019-04-12T05:12:43.669Z,76.14
2019-04-12T05:13:43.666Z,76.14
2019-04-12T05:14:43.652Z,76.14
2019-04-12T05:15:43.639Z,76.14
2019-04-12T05:16:43.633Z,76.23
2019-04-12T05:17:43.624Z,76.14
2019-04-12T05:18:43.610Z,76.14
2019-04-12T05:19:43.606Z,76.14
2019-04-12T05:20:43.590Z,76.14
2019-04-12T05:21:43.584Z,76.14
2019-04-12T05:22:46.201Z,76.14
2019-04-12T05:23:43.563Z,76.23
2019-04-12T05:24:43.555Z,76.23
2019-04-12T05:25:43.657Z,76.23
2019-04-12T05:26:48.290Z,76.14
2019-04-12T05:27:43.525Z,76.04
2019-04-12T05:28:43.518Z,76.04
2019-04-12T05:29:43.507Z,76.04
2019-04-12T05:30:43.496Z,75.98
2019-04-12T05:31:43.499Z,75.79
2019-04-12T05:32:43.478Z,75.6
2019-04-12T05:33:43.518Z,75.6
2019-04-12T05:34:43.465Z,75.51
2019-04-12T05:35:43.453Z,75.51
2019-04-12T05:36:43.442Z,75.42
2019-04-12T05:37:43.433Z,75.42
2019-04-12T05:38:43.420Z,75.32
2019-04-12T05:39:43.414Z,75.32
2019-04-12T05:40:43.402Z,75.13
2019-04-12T05:41:43.392Z,74.95
2019-04-12T05:42:43.385Z,74.66
2019-04-12T05:43:43.376Z,74.56
2019-04-12T05:44:43.366Z,74.75
2019-04-12T05:45:43.356Z,74.95
2019-04-12T05:46:43.347Z,75.04
2019-04-12T05:47:43.343Z,75.13
2019-04-12T05:48:43.325Z,75.04
2019-04-12T05:49:43.322Z,74.95
2019-04-12T05:50:43.314Z,74.85
2019-04-12T05:51:43.300Z,74.75
2019-04-12T05:52:43.289Z,74.66
2019-04-12T05:53:43.282Z,74.56
2019-04-12T05:54:43.275Z,74.28
2019-04-12T05:55:43.261Z,74.18
2019-04-12T05:56:43.253Z,74.18
2019-04-12T05:57:43.242Z,73.99
2019-04-12T05:58:43.235Z,73.8
2019-04-12T05:59:43.225Z,73.8
2019-04-12T06:00:47.990Z,73.71
2019-04-12T06:01:42.963Z,73.61
2019-04-12T06:02:43.195Z,73.56
2019-04-12T06:03:43.186Z,73.37
2019-04-12T06:04:43.228Z,72.99
2019-04-12T06:05:43.170Z,72.8
2019-04-12T06:06:43.155Z,72.8
2019-04-12T06:07:43.157Z,72.71
2019-04-12T06:08:43.135Z,72.52
2019-04-12T06:09:43.126Z,72.33
2019-04-12T06:10:43.118Z,72.23
2019-04-12T06:11:43.128Z,72.14
2019-04-12T06:12:43.101Z,72.33
2019-04-12T06:13:43.093Z,72.52
2019-04-12T06:14:43.084Z,72.52
2019-04-12T06:15:44.202Z,72.42
2019-04-12T06:16:43.060Z,72.42
2019-04-12T06:17:43.051Z,72.04
2019-04-12T06:18:43.040Z,71.85
2019-04-12T06:19:43.038Z,71.85
2019-04-12T06:20:43.027Z,71.95
2019-04-12T06:21:43.018Z,72.04
2019-04-12T06:22:43.007Z,72.23
2019-04-12T06:23:43.001Z,71.85
2019-04-12T06:24:42.989Z,71.19
2019-04-12T06:25:42.982Z,70.72
2019-04-12T06:26:42.966Z,70.62
2019-04-12T06:27:42.961Z,70.62
2019-04-12T06:28:42.946Z,70.72
2019-04-12T06:29:45.019Z,70.72
2019-04-12T06:30:42.930Z,70.34
2019-04-12T06:31:42.924Z,70.24
2019-04-12T06:32:42.910Z,70.15
2019-04-12T06:33:42.900Z,70.15
2019-04-12T06:34:42.893Z,70.34
2019-04-12T06:35:42.884Z,70.72
2019-04-12T06:36:42.871Z,70.94
2019-04-12T06:37:42.866Z,71.03
2019-04-12T06:38:42.856Z,70.56
2019-04-12T06:39:42.872Z,70.37
2019-04-12T06:40:42.836Z,70.37
2019-04-12T06:41:42.831Z,70.18
2019-04-12T06:42:42.818Z,70.28
2019-04-12T06:43:42.809Z,70.18
2019-04-12T06:44:42.799Z,70.18
2019-04-12T06:45:42.840Z,70.18
2019-04-12T06:46:42.778Z,70.09
2019-04-12T06:47:42.769Z,69.9
2019-04-12T06:48:42.762Z,69.8
2019-04-12T06:49:42.754Z,69.8
2019-04-12T06:50:42.742Z,69.52
2019-04-12T06:51:42.738Z,69.42
2019-04-12T06:52:42.724Z,69.23
2019-04-12T06:53:42.715Z,68.95
2019-04-12T06:54:42.714Z,68.66
2019-04-12T06:55:42.698Z,68.66
2019-04-12T06:56:42.688Z,68.76
2019-04-12T06:57:42.679Z,69.04
2019-04-12T06:58:42.746Z,69.04
2019-04-12T06:59:42.661Z,68.95
2019-04-12T07:00:42.653Z,68.95
2019-04-12T07:01:42.642Z,68.95
2019-04-12T07:02:42.636Z,69.08
2019-04-12T07:03:42.626Z,69.17
2019-04-12T07:04:42.614Z,69.08
2019-04-12T07:05:42.606Z,68.98
2019-04-12T07:06:44.888Z,68.79
2019-04-12T07:07:42.588Z,68.7
2019-04-12T07:08:42.583Z,68.32
2019-04-12T07:09:42.572Z,68.32
2019-04-12T07:10:42.563Z,68.23
2019-04-12T07:11:42.554Z,68.23
2019-04-12T07:12:42.543Z,68.04
2019-04-12T07:13:42.533Z,67.85
2019-04-12T07:14:42.525Z,67.37
2019-04-12T07:15:42.518Z,67.46
2019-04-12T07:16:42.503Z,67.37
2019-04-12T07:17:42.496Z,67.56
2019-04-12T07:18:42.489Z,67.85
2019-04-12T07:19:42.482Z,68.32
2019-04-12T07:20:42.471Z,68.7
2019-04-12T07:21:42.457Z,68.6
2019-04-12T07:22:42.701Z,68.51
2019-04-12T07:23:42.441Z,68.51
2019-04-12T07:24:42.435Z,68.41
2019-04-12T07:25:42.427Z,68.23
2019-04-12T07:26:42.417Z,68.23
2019-04-12T07:27:42.407Z,68.16
2019-04-12T07:28:42.400Z,68.07
2019-04-12T07:29:42.389Z,67.69
2019-04-12T07:30:42.383Z,67.12
2019-04-12T07:31:42.375Z,66.74
2019-04-12T07:32:42.369Z,66.64
2019-04-12T07:33:42.358Z,66.27
2019-04-12T07:34:42.343Z,66.17
2019-04-12T07:35:42.350Z,66.17
2019-04-12T07:36:42.329Z,66.08
2019-04-12T07:37:42.067Z,65.88
2019-04-12T07:38:42.321Z,65.79
2019-04-12T07:39:42.307Z,65.6
2019-04-12T07:40:42.295Z,65.6
2019-04-12T07:41:42.287Z,65.69
2019-04-12T07:42:42.273Z,65.88
2019-04-12T07:43:42.267Z,65.88
2019-04-12T07:44:42.256Z,65.98
2019-04-12T07:45:42.327Z,65.98
2019-04-12T07:46:42.238Z,65.98
2019-04-12T07:47:42.230Z,66.08
2019-04-12T07:48:42.221Z,65.79
2019-04-12T07:49:42.211Z,65.79
2019-04-12T07:50:42.204Z,65.69
2019-04-12T07:51:42.192Z,65.69
2019-04-12T07:52:42.183Z,65.69
2019-04-12T07:53:42.175Z,65.79
2019-04-12T07:54:42.171Z,66.01
2019-04-12T07:55:42.159Z,65.92
2019-04-12T07:56:42.156Z,65.63
2019-04-12T07:57:49.376Z,65.73
2019-04-12T07:58:42.132Z,65.63
2019-04-12T07:59:42.119Z,65.44
2019-04-12T08:00:42.114Z,64.78
2019-04-12T08:01:42.103Z,64.4
2019-04-12T08:02:42.099Z,64.02
2019-04-12T08:03:42.087Z,63.92
2019-04-12T08:04:42.078Z,64.02
2019-04-12T08:05:42.067Z,63.86
2019-04-12T08:06:42.063Z,63.64
2019-04-12T08:07:42.055Z,63.73
2019-04-12T08:08:42.044Z,63.92
2019-04-12T08:09:42.335Z,64.02
2019-04-12T08:10:42.028Z,64.4
2019-04-12T08:11:42.019Z,64.49
2019-04-12T08:12:41.760Z,64.49
2019-04-12T08:13:41.997Z,64.43
2019-04-12T08:14:41.987Z,64.24
2019-04-12T08:15:41.979Z,64.05
2019-04-12T08:16:41.971Z,63.76
2019-04-12T08:17:41.960Z,63.76
2019-04-12T08:18:41.950Z,63.86
2019-04-12T08:19:41.948Z,63.76
2019-04-12T08:20:41.937Z,63.95
2019-04-12T08:21:41.931Z,64.14
2019-04-12T08:22:41.920Z,64.05
2019-04-12T08:23:41.927Z,63.95
2019-04-12T08:24:41.904Z,63.95
2019-04-12T08:25:41.893Z,64.05
2019-04-12T08:26:41.885Z,64.05
2019-04-12T08:27:41.875Z,64.14
2019-04-12T08:28:41.867Z,64.14
2019-04-12T08:29:41.867Z,64.24
2019-04-12T08:30:41.598Z,64.24
2019-04-12T08:31:41.884Z,64.14
2019-04-12T08:32:41.839Z,63.86
2019-04-12T08:33:41.828Z,63.67
2019-04-12T08:34:41.818Z,63.86
2019-04-12T08:35:41.807Z,63.95
2019-04-12T08:36:41.809Z,64.05
2019-04-12T08:37:41.795Z,64.14
2019-04-12T08:38:41.786Z,64.05
2019-04-12T08:39:41.775Z,64.14
2019-04-12T08:40:41.763Z,64.24
2019-04-12T08:41:41.755Z,63.95
2019-04-12T08:42:41.748Z,63.67
2019-04-12T08:43:41.738Z,63.76
2019-04-12T08:44:41.730Z,63.86
2019-04-12T08:45:41.726Z,63.7
2019-04-12T08:46:41.739Z,63.32
2019-04-12T08:47:41.715Z,63.32
2019-04-12T08:48:41.778Z,63.32
2019-04-12T08:49:41.442Z,63.13
2019-04-12T08:50:41.725Z,63.04
2019-04-12T08:51:41.712Z,63.04
2019-04-12T08:52:41.730Z,62.75
2019-04-12T08:53:41.670Z,62.46
2019-04-12T08:54:41.662Z,62.37
2019-04-12T08:55:41.716Z,62.37
2019-04-12T08:56:41.690Z,61.71
2019-04-12T08:57:41.677Z,61.61
2019-04-12T08:58:41.681Z,61.42
2019-04-12T08:59:41.674Z,61.61
2019-04-12T09:00:42.360Z,61.71
2019-04-12T09:01:41.588Z,61.71
2019-04-12T09:02:41.375Z,61.45
2019-04-12T09:03:41.697Z,60.97
2019-04-12T09:04:41.738Z,60.5
2019-04-12T09:05:43.395Z,60.5
2019-04-12T09:06:41.368Z,60.31
2019-04-12T09:07:41.853Z,60.12
2019-04-12T09:08:41.394Z,59.93
2019-04-12T09:09:41.593Z,59.17
2019-04-12T09:10:41.645Z,59.07
2019-04-12T09:11:41.550Z,59.27
2019-04-12T09:12:41.616Z,59.61
2019-04-12T09:13:41.557Z,60.09
2019-04-12T09:14:41.628Z,60.38
2019-04-12T09:15:41.596Z,60.66
2019-04-12T09:16:41.654Z,61.07
2019-04-12T09:17:41.589Z,61.07
2019-04-12T09:18:41.531Z,60.97
2019-04-12T09:19:41.669Z,60.41
2019-04-12T09:20:41.636Z,60.21
2019-04-12T09:21:41.358Z,59.93
2019-04-12T09:22:41.573Z,58.79
2019-04-12T09:23:41.622Z,58.03
2019-04-12T09:24:41.395Z,58.03
2019-04-12T09:25:41.445Z,58.12
2019-04-12T09:26:41.452Z,58.31
2019-04-12T09:27:41.434Z,58.59
2019-04-12T09:28:41.510Z,58.88
2019-04-12T09:29:41.407Z,59.07
2019-04-12T09:30:41.344Z,59.17
2019-04-12T09:31:41.390Z,59.45
2019-04-12T09:32:41.339Z,59.64
2019-04-12T09:33:41.489Z,59.67
2019-04-12T09:34:41.314Z,59.48
2019-04-12T09:35:41.301Z,59.1
2019-04-12T09:36:41.293Z,58.34
2019-04-12T09:37:41.291Z,58.06
2019-04-12T09:38:41.277Z,58.25
2019-04-12T09:39:41.267Z,58.15
2019-04-12T09:40:41.261Z,57.48
2019-04-12T09:41:41.253Z,56.92
2019-04-12T09:42:41.245Z,56.24
2019-04-12T09:43:41.238Z,56.12
2019-04-12T09:44:43.908Z,56.41
2019-04-12T09:45:40.973Z,56.12
2019-04-12T09:46:41.211Z,56.6
2019-04-12T09:47:41.202Z,57.07
2019-04-12T09:48:41.194Z,57.45
2019-04-12T09:49:41.185Z,57.55
2019-04-12T09:50:41.186Z,57.58
2019-04-12T09:51:41.170Z,57.67
2019-04-12T09:52:41.191Z,57.2
2019-04-12T09:53:41.316Z,55.96
2019-04-12T09:54:41.148Z,55.87
2019-04-12T09:55:41.136Z,56.05
2019-04-12T09:56:41.132Z,56.63
2019-04-12T09:57:41.127Z,57.01
2019-04-12T09:58:41.111Z,56.15
2019-04-12T09:59:40.854Z,55.01
2019-04-12T10:00:41.173Z,54.72
2019-04-12T10:01:40.842Z,55.2
2019-04-12T10:02:41.092Z,55.58
2019-04-12T10:03:41.071Z,55.58
2019-04-12T10:04:41.061Z,55.51
2019-04-12T10:05:41.055Z,54.18
2019-04-12T10:06:41.046Z,53.8
2019-04-12T10:07:41.037Z,54.37
2019-04-12T10:08:41.034Z,54.35
2019-04-12T10:09:41.019Z,54.15
2019-04-12T10:10:41.014Z,54.25
2019-04-12T10:11:41.009Z,53.96
2019-04-12T10:12:40.998Z,53.96
2019-04-12T10:13:40.996Z,53.77
2019-04-12T10:14:40.990Z,53.67
2019-04-12T10:15:40.972Z,54.25
2019-04-12T10:16:40.970Z,53.96
2019-04-12T10:17:40.960Z,54.25
2019-04-12T10:18:40.949Z,54.35
2019-04-12T10:19:40.955Z,54.63
2019-04-12T10:20:40.927Z,54.75
2019-04-12T10:21:40.924Z,54.37
2019-04-12T10:22:40.913Z,54.18
2019-04-12T10:23:40.907Z,53.13
2019-04-12T10:24:40.902Z,51.82
2019-04-12T10:25:40.893Z,50.75
2019-04-12T10:26:40.880Z,51.04
2019-04-12T10:27:40.877Z,51.04
2019-04-12T10:28:51.922Z,51.8
2019-04-12T10:29:40.614Z,52.09
2019-04-12T10:30:40.599Z,51.8
2019-04-12T10:31:40.850Z,51.61
2019-04-12T10:32:40.838Z,52.09
2019-04-12T10:33:40.831Z,52.75
2019-04-12T10:34:40.833Z,52.94
2019-04-12T10:35:40.812Z,52.56
2019-04-12T10:36:40.803Z,52.84
2019-04-12T10:37:40.795Z,53.52
2019-04-12T10:38:40.784Z,53.42
2019-04-12T10:39:40.778Z,52.94
2019-04-12T10:40:40.770Z,53.04
2019-04-12T10:41:40.763Z,53.32
2019-04-12T10:42:40.763Z,52.87
2019-04-12T10:43:40.744Z,52.49
2019-04-12T10:44:40.743Z,51.73
2019-04-12T10:45:40.727Z,52.3
2019-04-12T10:46:40.720Z,52.2
2019-04-12T10:47:40.714Z,51.73
2019-04-12T10:48:40.709Z,51.64
2019-04-12T10:49:40.699Z,50.99
2019-04-12T10:50:40.688Z,50.8
2019-04-12T10:51:40.681Z,50.71
2019-04-12T10:52:40.674Z,50.42
2019-04-12T10:53:40.664Z,50.71
2019-04-12T10:54:40.658Z,51.09
2019-04-12T10:55:40.654Z,51.18
2019-04-12T10:56:40.651Z,51.09
2019-04-12T10:57:40.638Z,51.18
2019-04-12T10:58:40.643Z,50.8
2019-04-12T10:59:40.622Z,50.04
2019-04-12T11:00:40.612Z,50.04
2019-04-12T11:01:40.607Z,50.23
2019-04-12T11:02:40.596Z,49.11
2019-04-12T11:03:40.584Z,48.61
2019-04-12T11:04:40.579Z,48.61
2019-04-12T11:05:40.577Z,48.61
2019-04-12T11:06:40.562Z,48.8
2019-04-12T11:07:40.557Z,49.18
2019-04-12T11:08:40.546Z,49.73
2019-04-12T11:09:40.542Z,50.11
2019-04-12T11:10:40.535Z,50.4
2019-04-12T11:11:40.521Z,50.21
2019-04-12T11:12:40.526Z,50.11
2019-04-12T11:13:40.510Z,50.49
2019-04-12T11:14:40.500Z,50.4
2019-04-12T11:15:40.492Z,50.68
2019-04-12T11:16:40.483Z,50.68
2019-04-12T11:17:40.474Z,50.42
2019-04-12T11:18:40.468Z,50.32
2019-04-12T11:19:40.459Z,49.95
2019-04-12T11:20:40.202Z,48.71
2019-04-12T11:21:40.448Z,48.23
2019-04-12T11:22:40.436Z,48.23
2019-04-12T11:23:40.435Z,48.42
2019-04-12T11:24:40.423Z,49.28
2019-04-12T11:25:40.414Z,49.73
2019-04-12T11:26:40.405Z,49.82
2019-04-12T11:27:40.395Z,49.06
2019-04-12T11:28:40.389Z,49.35
2019-04-12T11:29:40.402Z,49.35
2019-04-12T11:30:40.371Z,49.54
2019-04-12T11:31:40.370Z,50.21
2019-04-12T11:32:40.353Z,50.4
2019-04-12T11:33:40.367Z,51.37
2019-04-12T11:34:40.340Z,50.32
2019-04-12T11:35:40.335Z,49.28
2019-04-12T11:36:40.331Z,48.9
2019-04-12T11:37:40.319Z,48.44
2019-04-12T11:38:40.306Z,48.07
2019-04-12T11:39:40.050Z,47.78
2019-04-12T11:40:40.290Z,47.58
2019-04-12T11:41:40.290Z,47.39
2019-04-12T11:42:40.276Z,48.63
2019-04-12T11:43:40.264Z,49.4
2019-04-12T11:44:40.312Z,48.83
2019-04-12T11:45:40.251Z,49.02
2019-04-12T11:46:40.273Z,49.21
2019-04-12T11:47:40.242Z,49.02
2019-04-12T11:48:40.228Z,48.16
2019-04-12T11:49:40.218Z,48.44
2019-04-12T11:50:40.213Z,48.8
2019-04-12T11:51:40.202Z,48.42
2019-04-12T11:52:40.192Z,48.42
2019-04-12T11:53:40.184Z,49.08
2019-04-12T11:54:40.180Z,49.08
2019-04-12T11:55:40.169Z,49.26
2019-04-12T11:56:40.163Z,49.92
2019-04-12T11:57:40.521Z,49.82
2019-04-12T11:58:50.515Z,50.49
2019-04-12T11:59:40.140Z,49.73
2019-04-12T12:00:40.131Z,49.06
2019-04-12T12:01:40.129Z,49.06
2019-04-12T12:02:40.116Z,48.71
2019-04-12T12:03:40.106Z,48.78
2019-04-12T12:04:40.100Z,48.99
2019-04-12T12:05:40.164Z,49.18
2019-04-12T12:06:40.081Z,49.08
2019-04-12T12:07:52.267Z,49.28
2019-04-12T12:08:40.067Z,49.66
2019-04-12T12:09:40.064Z,49.66
2019-04-12T12:10:39.804Z,49.49
2019-04-12T12:11:40.044Z,48.16
2019-04-12T12:12:40.032Z,47.3
2019-04-12T12:13:40.029Z,47.37
2019-04-12T12:14:40.020Z,47.66
2019-04-12T12:15:40.009Z,47.85
2019-04-12T12:16:39.751Z,48.11
2019-04-12T12:17:39.998Z,48.87
2019-04-12T12:18:39.986Z,49.06
2019-04-12T12:19:39.976Z,49.35
2019-04-12T12:20:39.970Z,49.73
2019-04-12T12:21:40.025Z,48.78
2019-04-12T12:22:39.958Z,48.21
2019-04-12T12:23:39.950Z,48.39
2019-04-12T12:24:39.999Z,48.97
2019-04-12T12:25:39.932Z,49.26
2019-04-12T12:26:39.925Z,49.06
2019-04-12T12:27:39.922Z,49.54
2019-04-12T12:28:39.913Z,49.92
2019-04-12T12:29:45.354Z,50.01
2019-04-12T12:30:39.892Z,50.13
2019-04-12T12:31:39.936Z,49.76
2019-04-12T12:32:39.889Z,49.66
2019-04-12T12:33:39.866Z,49.56
2019-04-12T12:34:39.858Z,49.56
2019-04-12T12:35:39.854Z,49.76
2019-04-12T12:36:39.847Z,49.37
2019-04-12T12:37:39.834Z,49.66
2019-04-12T12:38:39.825Z,49.18
2019-04-12T12:39:39.818Z,48.87
2019-04-12T12:40:39.817Z,49.54
2019-04-12T12:41:39.809Z,49.92
2019-04-12T12:42:39.804Z,49.92
2019-04-12T12:43:39.787Z,49.73
2019-04-12T12:44:39.779Z,49.54
2019-04-12T12:45:39.772Z,49.92
2019-04-12T12:46:39.763Z,49.92
2019-04-12T12:47:39.755Z,49.82
2019-04-12T12:48:39.748Z,50.21
2019-04-12T12:49:39.751Z,50.04
2019-04-12T12:50:39.738Z,49.56
2019-04-12T12:51:39.725Z,49.56
2019-04-12T12:52:39.714Z,48.61
2019-04-12T12:53:39.707Z,48.71
2019-04-12T12:54:39.703Z,49.28
2019-04-12T12:55:39.690Z,49.37
2019-04-12T12:56:39.686Z,48.71